Time;durP1;ratioP1;P1;durP2;ratioP2;P2;SDS_P1;SDS_P2;PMS_P1;PMS_P2;Temp;Humidity;BMP_temperature;BMP_pressure;BME280_temperature;BME280_humidity;BME280_pressure;Samples;Min_cycle;Max_cycle;Signal;HPM_P1;HPM_P2
2021/11/30 00:01:39;;;;;;;7.75;2.28;;;4.50;99.90;;;;;;5058721;28;21785;-64
2021/11/30 00:04:05;;;;;;;5.18;1.25;;;4.50;99.90;;;;;;5060307;28;20406;-64
2021/11/30 00:06:34;;;;;;;5.40;1.40;;;4.50;99.90;;;;;;5059097;28;20045;-65
2021/11/30 00:09:21;;;;;;;6.70;1.05;;;4.60;99.90;;;;;;5058058;28;20075;-64
2021/11/30 00:11:48;;;;;;;6.85;1.52;;;4.60;99.90;;;;;;5058648;28;20052;-64
2021/11/30 00:14:14;;;;;;;6.82;1.73;;;4.60;99.90;;;;;;5093533;28;20056;-64
2021/11/30 00:16:40;;;;;;;5.22;1.27;;;4.60;99.90;;;;;;5060360;28;20131;-64
2021/11/30 00:19:05;;;;;;;4.00;1.23;;;4.60;99.90;;;;;;5060089;28;20115;-64
2021/11/30 00:21:31;;;;;;;7.90;1.48;;;4.60;99.90;;;;;;5059835;28;20111;-64
2021/11/30 00:23:57;;;;;;;6.30;1.25;;;4.70;99.90;;;;;;5060330;28;20110;-64
2021/11/30 00:26:22;;;;;;;9.38;1.25;;;4.70;99.90;;;;;;5060905;28;20045;-64
2021/11/30 00:28:48;;;;;;;6.78;1.50;;;4.60;99.90;;;;;;5058239;28;20479;-64
2021/11/30 00:31:14;;;;;;;6.15;1.13;;;4.70;99.90;;;;;;5057475;28;20051;-64
2021/11/30 00:33:39;;;;;;;5.18;1.10;;;4.70;99.90;;;;;;5058848;28;20033;-64
2021/11/30 00:36:05;;;;;;;7.80;1.40;;;4.70;99.90;;;;;;5088371;28;20127;-64
2021/11/30 00:38:31;;;;;;;4.70;1.13;;;4.70;99.90;;;;;;5060759;28;20036;-65
2021/11/30 00:40:57;;;;;;;6.07;1.08;;;4.80;99.90;;;;;;5059554;28;20071;-64
2021/11/30 00:43:26;;;;;;;5.40;0.95;;;4.70;99.90;;;;;;5062096;28;20458;-64
2021/11/30 00:45:57;;;;;;;6.95;0.82;;;4.80;99.90;;;;;;5059166;28;20090;-64
2021/11/30 00:48:30;;;;;;;4.25;0.80;;;4.80;99.90;;;;;;5060854;28;20043;-64
2021/11/30 00:50:58;;;;;;;5.20;0.90;;;4.80;99.90;;;;;;5061552;28;20034;-64
2021/11/30 00:53:24;;;;;;;6.78;1.20;;;4.80;99.90;;;;;;5058216;28;20049;-64
2021/11/30 00:55:50;;;;;;;8.43;1.00;;;4.90;99.90;;;;;;5059312;28;20033;-64
2021/11/30 00:58:15;;;;;;;9.20;1.00;;;4.80;99.90;;;;;;5060748;28;20040;-64
2021/11/30 01:00:41;;;;;;;7.55;1.23;;;4.80;99.90;;;;;;5061419;28;20033;-64
2021/11/30 01:03:07;;;;;;;7.03;1.08;;;4.80;99.90;;;;;;5058757;28;20449;-64
2021/11/30 01:05:35;;;;;;;6.20;0.95;;;4.80;99.90;;;;;;5058602;28;20068;-64
2021/11/30 01:08:01;;;;;;;9.60;1.23;;;4.80;99.90;;;;;;5057625;28;20045;-64
2021/11/30 01:10:26;;;;;;;6.55;0.90;;;4.80;99.90;;;;;;5059847;28;20060;-64
2021/11/30 01:12:52;;;;;;;6.63;1.02;;;4.80;99.90;;;;;;5059860;28;20040;-64
2021/11/30 01:15:20;;;;;;;8.65;1.42;;;4.80;99.90;;;;;;5059590;28;20052;-64
2021/11/30 01:17:46;;;;;;;6.85;1.27;;;4.80;99.90;;;;;;5058428;28;20127;-64
2021/11/30 01:20:13;;;;;;;9.10;1.40;;;4.70;99.90;;;;;;5091079;28;20045;-64
2021/11/30 01:22:40;;;;;;;8.13;1.45;;;4.70;99.90;;;;;;5059386;28;20048;-64
2021/11/30 01:25:07;;;;;;;7.65;1.85;;;4.70;99.90;;;;;;5060041;28;20040;-64
2021/11/30 01:27:33;;;;;;;8.23;1.38;;;4.70;99.90;;;;;;5060023;28;20048;-64
2021/11/30 01:29:59;;;;;;;7.68;1.30;;;4.60;99.90;;;;;;5057316;28;20497;-64
2021/11/30 01:32:24;;;;;;;13.70;1.75;;;4.60;99.90;;;;;;5057089;28;20048;-64
2021/11/30 01:34:50;;;;;;;9.40;1.67;;;4.60;99.90;;;;;;5058037;28;20040;-65
2021/11/30 01:37:16;;;;;;;9.10;2.53;;;4.60;99.90;;;;;;5058435;28;20048;-64
2021/11/30 01:39:46;;;;;;;5.78;1.67;;;4.50;99.90;;;;;;5087475;28;20036;-64
2021/11/30 01:42:13;;;;;;;8.27;2.10;;;4.60;99.90;;;;;;5056075;28;20053;-64
2021/11/30 01:45:01;;;;;;;9.30;2.42;;;4.60;99.90;;;;;;5058599;28;20029;-64
2021/11/30 01:49:57;;;;;;;12.20;2.35;;;4.50;99.90;;;;;;5058532;28;20109;-64
2021/11/30 01:52:22;;;;;;;7.97;2.10;;;4.50;99.90;;;;;;5062651;28;20051;-64
2021/11/30 01:54:50;;;;;;;10.05;2.00;;;4.60;99.90;;;;;;5060697;28;20037;-65
2021/11/30 01:57:19;;;;;;;9.88;2.30;;;4.50;99.90;;;;;;5061447;28;20059;-64
2021/11/30 01:59:46;;;;;;;10.75;2.63;;;4.50;99.90;;;;;;5059143;28;20032;-64
2021/11/30 02:02:12;;;;;;;7.50;2.92;;;4.60;99.90;;;;;;5060486;28;20068;-64
2021/11/30 02:04:39;;;;;;;12.63;3.30;;;4.50;99.90;;;;;;5061230;28;20036;-64
2021/11/30 02:07:05;;;;;;;8.55;3.10;;;4.50;99.90;;;;;;5047340;28;20044;-64
2021/11/30 02:09:31;;;;;;;6.28;2.70;;;4.40;99.90;;;;;;5059487;28;20049;-64
2021/11/30 02:11:57;;;;;;;7.50;3.03;;;4.50;99.90;;;;;;5064918;28;20124;-64
2021/11/30 02:14:23;;;;;;;10.02;3.15;;;4.50;99.90;;;;;;5065342;28;20139;-64
2021/11/30 02:16:50;;;;;;;8.25;3.10;;;4.50;99.90;;;;;;5060660;28;20517;-64
2021/11/30 02:19:16;;;;;;;8.63;3.35;;;4.50;99.90;;;;;;5061121;28;20036;-64
2021/11/30 02:21:42;;;;;;;8.10;3.10;;;4.50;99.90;;;;;;5059279;28;20037;-64
2021/11/30 02:24:09;;;;;;;7.60;3.22;;;4.40;99.90;;;;;;5062257;28;20111;-64
2021/11/30 02:26:37;;;;;;;8.60;3.47;;;4.50;99.90;;;;;;5061905;28;20044;-64
2021/11/30 02:29:04;;;;;;;8.52;3.50;;;4.50;99.90;;;;;;5061200;28;20063;-64
2021/11/30 02:31:45;;;;;;;10.20;2.92;;;4.50;99.90;;;;;;5078056;28;20123;-64
2021/11/30 02:34:12;;;;;;;9.57;3.50;;;4.40;99.90;;;;;;5063503;28;20049;-64
2021/11/30 02:39:15;;;;;;;9.02;3.67;;;4.50;99.90;;;;;;5062488;28;20040;-64
2021/11/30 02:41:42;;;;;;;11.73;3.53;;;4.50;99.90;;;;;;5065048;28;20485;-64
2021/11/30 02:44:12;;;;;;;7.72;3.30;;;4.50;99.90;;;;;;5064150;28;20053;-64
2021/11/30 02:46:37;;;;;;;4.85;3.90;;;4.50;99.90;;;;;;5063080;28;20487;-64
2021/11/30 02:49:06;;;;;;;10.00;4.57;;;4.50;99.90;;;;;;5064151;28;20064;-64
2021/11/30 02:51:32;;;;;;;8.77;4.28;;;4.60;99.90;;;;;;5063737;28;20032;-64
2021/11/30 02:54:01;;;;;;;6.32;4.43;;;4.50;99.90;;;;;;5065569;28;20049;-64
2021/11/30 02:56:28;;;;;;;8.50;4.80;;;4.50;99.90;;;;;;5065456;28;20040;-64
2021/11/30 02:58:55;;;;;;;8.50;4.70;;;4.60;99.90;;;;;;5062332;28;20037;-64
2021/11/30 03:01:21;;;;;;;7.47;5.00;;;4.60;99.90;;;;;;5061142;28;20068;-64
2021/11/30 03:03:48;;;;;;;6.78;5.50;;;4.60;99.90;;;;;;5058715;28;20044;-64
2021/11/30 03:06:14;;;;;;;8.90;5.28;;;4.60;99.90;;;;;;5061670;28;20385;-64
2021/11/30 03:08:41;;;;;;;7.55;5.85;;;4.60;99.90;;;;;;5060462;28;20416;-64
2021/11/30 03:11:08;;;;;;;6.07;5.57;;;4.70;99.90;;;;;;5062271;28;20514;-64
2021/11/30 03:13:34;;;;;;;5.68;5.05;;;4.70;99.90;;;;;;5061084;28;20059;-64
2021/11/30 03:16:00;;;;;;;7.35;5.78;;;4.70;99.90;;;;;;5060556;28;20506;-64
2021/11/30 03:18:26;;;;;;;6.57;5.50;;;4.70;99.90;;;;;;5057722;28;20036;-64
2021/11/30 03:20:52;;;;;;;5.63;5.05;;;4.70;99.90;;;;;;5065681;28;20033;-64
2021/11/30 03:23:18;;;;;;;6.20;5.53;;;4.80;99.90;;;;;;5062779;28;20059;-64
2021/11/30 03:25:44;;;;;;;7.93;5.95;;;4.80;99.90;;;;;;5060445;28;20512;-64
2021/11/30 03:28:10;;;;;;;6.45;5.28;;;4.80;99.90;;;;;;5060049;28;20056;-64
2021/11/30 03:30:38;;;;;;;7.78;5.68;;;4.80;99.90;;;;;;5093293;28;20040;-64
2021/11/30 03:35:48;;;;;;;6.07;5.55;;;4.90;99.90;;;;;;5063182;28;20071;-64
2021/11/30 03:38:14;;;;;;;6.85;6.25;;;4.90;99.90;;;;;;5066323;28;20090;-64
2021/11/30 03:40:41;;;;;;;7.82;6.32;;;5.00;99.90;;;;;;5062542;28;20037;-64
2021/11/30 03:43:06;;;;;;;6.80;6.15;;;5.00;99.90;;;;;;5095478;28;20060;-64
2021/11/30 03:45:32;;;;;;;6.93;6.28;;;5.00;99.90;;;;;;5064491;28;20506;-64
2021/11/30 03:47:58;;;;;;;6.13;5.63;;;5.10;99.90;;;;;;5065184;28;20043;-64
2021/11/30 03:50:24;;;;;;;7.03;6.40;;;5.10;99.90;;;;;;5063644;28;20079;-64
2021/11/30 03:52:52;;;;;;;7.63;7.03;;;5.10;99.90;;;;;;5064087;28;20059;-64
2021/11/30 03:55:17;;;;;;;7.90;7.20;;;5.10;99.90;;;;;;5064429;28;20048;-64
2021/11/30 03:57:43;;;;;;;6.32;5.72;;;5.20;99.90;;;;;;5065450;28;20501;-64
2021/11/30 04:00:11;;;;;;;7.68;7.05;;;5.20;99.90;;;;;;5092134;28;20044;-64
2021/11/30 04:02:40;;;;;;;6.57;6.03;;;5.20;99.90;;;;;;5066615;28;20037;-64
2021/11/30 04:05:08;;;;;;;6.22;5.65;;;5.30;99.90;;;;;;5064097;28;20597;-64
2021/11/30 04:07:34;;;;;;;7.05;6.35;;;5.30;99.90;;;;;;5065089;28;20044;-64
2021/11/30 04:10:00;;;;;;;7.45;6.75;;;5.30;99.90;;;;;;5061733;28;20044;-64
2021/11/30 04:12:26;;;;;;;7.75;7.05;;;5.30;99.90;;;;;;5060689;28;20047;-64
2021/11/30 04:14:52;;;;;;;7.93;7.22;;;5.30;99.90;;;;;;5064829;28;20032;-64
2021/11/30 04:17:18;;;;;;;7.25;6.65;;;5.40;99.90;;;;;;5065756;28;20041;-64
2021/11/30 04:19:43;;;;;;;7.38;6.78;;;5.40;99.90;;;;;;5062439;28;20054;-64
2021/11/30 04:22:09;;;;;;;7.38;6.78;;;5.50;99.90;;;;;;5065036;28;20036;-64
2021/11/30 04:24:36;;;;;;;8.07;7.28;;;5.40;99.90;;;;;;5065166;28;20051;-64
2021/11/30 04:27:02;;;;;;;6.65;6.05;;;5.50;99.90;;;;;;5059418;28;20029;-64
2021/11/30 04:29:28;;;;;;;8.10;7.38;;;5.60;99.90;;;;;;5059592;28;20036;-64
2021/11/30 04:31:54;;;;;;;7.90;7.20;;;5.60;99.90;;;;;;5064886;28;20086;-64
2021/11/30 04:34:19;;;;;;;7.97;7.20;;;5.60;99.90;;;;;;5060369;28;20045;-64
2021/11/30 04:36:45;;;;;;;8.35;7.55;;;5.60;99.90;;;;;;5061199;28;20048;-64
2021/11/30 04:39:11;;;;;;;7.80;7.10;;;5.60;99.90;;;;;;5063334;28;20570;-64
2021/11/30 04:41:37;;;;;;;8.52;7.63;;;5.60;99.90;;;;;;5062361;28;20052;-64
2021/11/30 04:44:03;;;;;;;8.30;7.40;;;5.70;99.90;;;;;;5088776;28;20033;-64
2021/11/30 04:46:38;;;;;;;11.23;8.60;;;5.70;99.90;;;;;;5062860;28;20149;-64
2021/11/30 04:49:13;;;;;;;14.20;8.57;;;5.80;99.90;;;;;;5062483;28;20111;-64
2021/11/30 04:51:39;;;;;;;8.07;6.93;;;5.80;99.90;;;;;;5062640;28;20040;-64
2021/11/30 04:54:04;;;;;;;11.35;8.90;;;5.80;99.90;;;;;;5063799;28;20047;-64
2021/11/30 04:56:30;;;;;;;11.60;8.63;;;5.90;99.90;;;;;;5062947;28;20036;-64
2021/11/30 04:58:56;;;;;;;8.07;7.10;;;5.90;99.90;;;;;;5061388;28;20048;-64
2021/11/30 05:01:22;;;;;;;9.60;7.38;;;6.00;99.90;;;;;;5062973;28;20556;-64
2021/11/30 05:03:49;;;;;;;18.90;11.18;;;6.00;99.90;;;;;;5062083;28;20040;-64
2021/11/30 05:06:15;;;;;;;10.07;7.72;;;6.10;99.90;;;;;;5092522;28;20098;-64
2021/11/30 05:08:41;;;;;;;11.48;7.80;;;6.20;99.90;;;;;;5063389;28;20055;-64
2021/11/30 05:11:08;;;;;;;7.53;5.50;;;6.20;99.90;;;;;;5064900;28;20386;-64
2021/11/30 05:13:33;;;;;;;10.55;6.43;;;6.30;99.90;;;;;;5079303;28;20080;-64
2021/11/30 05:15:59;;;;;;;5.35;3.63;;;6.40;99.90;;;;;;5065553;28;20136;-64
2021/11/30 05:18:25;;;;;;;3.95;2.30;;;6.50;99.90;;;;;;5063173;28;20032;-64
2021/11/30 05:20:53;;;;;;;3.88;1.45;;;6.60;99.90;;;;;;5063982;28;20037;-64
2021/11/30 05:23:27;;;;;;;5.63;1.27;;;6.90;99.90;;;;;;5063747;28;20568;-64
2021/11/30 05:25:55;;;;;;;5.00;1.10;;;7.00;99.90;;;;;;5062388;28;20120;-64
2021/11/30 05:28:22;;;;;;;3.15;0.70;;;7.10;99.90;;;;;;5063579;28;20028;-64
2021/11/30 05:30:48;;;;;;;3.20;0.60;;;7.20;99.90;;;;;;5063684;28;20201;-64
2021/11/30 05:33:14;;;;;;;3.50;0.68;;;7.30;99.90;;;;;;5063832;28;20159;-65
2021/11/30 05:35:41;;;;;;;4.85;0.60;;;7.50;99.90;;;;;;5062433;28;20039;-64
2021/11/30 05:38:07;;;;;;;2.90;0.55;;;7.60;99.90;;;;;;5060827;28;20072;-64
2021/11/30 05:40:33;;;;;;;4.72;0.85;;;7.60;99.90;;;;;;5061271;28;20090;-65
2021/11/30 05:42:59;;;;;;;4.50;0.68;;;7.60;99.90;;;;;;5094740;28;20033;-64
2021/11/30 05:45:25;;;;;;;4.18;0.70;;;7.70;99.90;;;;;;5064705;28;20455;-65
2021/11/30 05:47:51;;;;;;;5.55;0.60;;;7.80;99.90;;;;;;5099362;28;20053;-64
2021/11/30 05:50:17;;;;;;;4.95;0.60;;;7.70;99.90;;;;;;5065693;28;20173;-65
2021/11/30 05:52:43;;;;;;;3.42;0.38;;;7.80;99.90;;;;;;5066530;28;20048;-64
2021/11/30 05:55:09;;;;;;;4.10;0.70;;;7.80;99.90;;;;;;5066210;28;20043;-65
2021/11/30 05:57:38;;;;;;;7.18;1.10;;;7.80;99.90;;;;;;5097089;28;20045;-65
2021/11/30 06:00:05;;;;;;;9.52;1.40;;;7.80;99.90;;;;;;5096961;28;20458;-65
2021/11/30 06:02:31;;;;;;;5.10;0.80;;;7.80;99.90;;;;;;5066769;28;20622;-65
2021/11/30 06:04:57;;;;;;;6.35;0.88;;;7.90;99.90;;;;;;5066594;28;20044;-65
2021/11/30 06:07:23;;;;;;;5.05;0.90;;;7.90;99.90;;;;;;5064363;28;20052;-65
2021/11/30 06:09:49;;;;;;;10.77;1.15;;;7.90;99.90;;;;;;5065102;28;20089;-65
2021/11/30 06:12:14;;;;;;;11.07;1.30;;;8.00;99.90;;;;;;5068983;28;20059;-65
2021/11/30 06:14:40;;;;;;;15.48;2.17;;;8.00;99.90;;;;;;5066226;28;20036;-65
2021/11/30 06:17:06;;;;;;;13.07;1.50;;;8.00;99.90;;;;;;5066822;28;20445;-65
2021/11/30 06:19:34;;;;;;;13.27;1.77;;;8.10;99.90;;;;;;5060476;28;20039;-65
2021/11/30 06:22:00;;;;;;;16.45;1.92;;;8.00;99.90;;;;;;5061758;28;20063;-65
2021/11/30 06:24:26;;;;;;;14.63;1.83;;;8.10;99.90;;;;;;5061967;28;20048;-65
2021/11/30 06:26:52;;;;;;;16.38;2.38;;;8.10;99.90;;;;;;5062029;28;20048;-65
2021/11/30 06:29:18;;;;;;;15.32;1.95;;;8.10;99.90;;;;;;5063320;28;21792;-65
2021/11/30 06:31:44;;;;;;;18.60;1.77;;;8.20;99.90;;;;;;5062418;28;20040;-65
2021/11/30 06:34:10;;;;;;;16.92;1.77;;;8.20;99.90;;;;;;5062898;28;20032;-65
2021/11/30 06:36:36;;;;;;;11.57;1.67;;;8.20;99.90;;;;;;5061923;28;20036;-65
2021/11/30 06:39:02;;;;;;;19.23;1.83;;;8.20;99.90;;;;;;5061694;28;20059;-65
2021/11/30 06:41:27;;;;;;;12.95;2.03;;;8.20;99.90;;;;;;5062925;28;20079;-65
2021/11/30 06:43:53;;;;;;;13.85;1.45;;;8.20;99.90;;;;;;5062814;28;20451;-65
2021/11/30 06:46:19;;;;;;;15.25;1.55;;;8.20;99.90;;;;;;5061486;28;20064;-65
2021/11/30 06:48:45;;;;;;;12.57;1.80;;;8.20;99.90;;;;;;5064294;28;20440;-65
2021/11/30 06:51:11;;;;;;;19.23;2.40;;;8.20;99.90;;;;;;5063237;28;20033;-65
2021/11/30 06:53:36;;;;;;;15.57;2.30;;;8.20;99.90;;;;;;5060948;28;20124;-65
2021/11/30 06:56:03;;;;;;;21.13;2.35;;;8.20;99.90;;;;;;5059617;28;20124;-65
2021/11/30 06:58:28;;;;;;;22.52;2.55;;;8.20;99.90;;;;;;5063726;28;20029;-65
2021/11/30 07:00:54;;;;;;;25.33;2.92;;;8.20;99.90;;;;;;5060097;28;20047;-65
2021/11/30 07:03:22;;;;;;;16.27;2.00;;;8.20;99.90;;;;;;5062028;28;20040;-65
2021/11/30 07:06:37;;;;;;;23.65;2.38;;;8.20;99.90;;;;;;5061170;28;20077;-65
2021/11/30 07:14:08;;;;;;;19.15;1.33;;;8.10;99.90;;;;;;5061365;28;20040;-65
2021/11/30 07:16:34;;;;;;;21.30;3.30;;;8.10;99.90;;;;;;5068231;28;20063;-65
2021/11/30 07:19:00;;;;;;;16.25;2.25;;;8.10;99.90;;;;;;5058888;28;20959;-65
2021/11/30 07:21:27;;;;;;;22.15;2.90;;;8.10;99.90;;;;;;5057693;28;20041;-65
2021/11/30 07:23:54;;;;;;;22.75;2.08;;;8.00;99.90;;;;;;5063416;28;20046;-65
2021/11/30 07:26:19;;;;;;;20.45;2.22;;;8.10;99.90;;;;;;5061927;28;20037;-65
2021/11/30 07:28:46;;;;;;;19.05;1.60;;;8.10;99.90;;;;;;5062877;28;20048;-65
2021/11/30 07:31:13;;;;;;;21.15;2.92;;;8.10;99.90;;;;;;5060392;28;20032;-65
2021/11/30 07:33:43;;;;;;;15.93;1.73;;;8.10;99.90;;;;;;5094379;28;20040;-65
2021/11/30 07:36:10;;;;;;;18.30;1.65;;;8.10;99.90;;;;;;5060979;28;20045;-65
2021/11/30 07:38:36;;;;;;;18.35;2.20;;;8.10;99.90;;;;;;5061149;28;20474;-65
2021/11/30 07:41:03;;;;;;;26.70;1.92;;;8.10;99.90;;;;;;5061305;28;20036;-65
2021/11/30 07:43:28;;;;;;;23.40;1.95;;;8.00;99.90;;;;;;5060486;28;20025;-65
2021/11/30 07:45:54;;;;;;;21.42;2.50;;;8.00;99.90;;;;;;5062099;28;20532;-65
2021/11/30 07:48:21;;;;;;;26.90;2.25;;;8.00;99.90;;;;;;5062493;28;20088;-65
2021/11/30 07:50:47;;;;;;;23.63;2.20;;;8.10;99.90;;;;;;5094880;28;20063;-65
2021/11/30 07:53:13;;;;;;;25.55;2.92;;;8.00;99.90;;;;;;5063762;28;20053;-65
2021/11/30 07:55:39;;;;;;;23.17;2.20;;;8.10;99.90;;;;;;5065306;28;20135;-65
2021/11/30 07:58:06;;;;;;;19.95;2.28;;;8.00;99.90;;;;;;5062022;28;20044;-65
2021/11/30 08:00:31;;;;;;;19.88;2.17;;;8.10;99.90;;;;;;5062640;28;20037;-65
2021/11/30 08:02:57;;;;;;;12.27;1.92;;;8.20;99.90;;;;;;5062644;28;20449;-65
2021/11/30 08:05:23;;;;;;;19.27;2.45;;;8.20;99.90;;;;;;5064556;28;20044;-65
2021/11/30 08:07:48;;;;;;;15.38;1.83;;;8.20;99.90;;;;;;5063499;28;20040;-65
2021/11/30 08:10:17;;;;;;;22.30;1.85;;;8.20;99.90;;;;;;5062530;28;20049;-65
2021/11/30 08:12:44;;;;;;;25.15;2.17;;;8.20;99.90;;;;;;5063098;28;20418;-65
2021/11/30 08:15:12;;;;;;;18.90;1.95;;;8.20;99.90;;;;;;5064221;28;20036;-65
2021/11/30 08:17:38;;;;;;;26.70;3.17;;;8.10;99.90;;;;;;5063538;28;20152;-65
2021/11/30 08:20:05;;;;;;;20.17;2.92;;;8.20;99.90;;;;;;5094653;28;20041;-65
2021/11/30 08:22:31;;;;;;;19.55;2.05;;;8.20;99.90;;;;;;5064967;28;20779;-65
2021/11/30 08:24:57;;;;;;;18.92;2.22;;;8.30;99.90;;;;;;5062472;28;20036;-65
2021/11/30 08:27:22;;;;;;;17.55;2.70;;;8.20;99.90;;;;;;5061950;28;20041;-65
2021/11/30 08:29:50;;;;;;;13.02;1.40;;;8.30;99.90;;;;;;5061733;28;20050;-65
2021/11/30 08:32:22;;;;;;;23.45;2.97;;;8.20;99.90;;;;;;5062620;28;20128;-65
2021/11/30 08:34:50;;;;;;;28.35;3.90;;;8.30;99.90;;;;;;5061314;28;20090;-65
2021/11/30 08:37:16;;;;;;;23.88;3.20;;;8.30;99.90;;;;;;5057966;28;20047;-65
2021/11/30 08:39:42;;;;;;;19.75;2.28;;;8.30;99.90;;;;;;5063669;28;20437;-65
2021/11/30 08:42:11;;;;;;;14.30;1.75;;;8.40;99.90;;;;;;5058422;28;20043;-65
2021/11/30 08:44:37;;;;;;;21.73;2.80;;;8.40;99.90;;;;;;5065854;28;20082;-64
2021/11/30 08:47:06;;;;;;;15.38;2.65;;;8.40;99.90;;;;;;5062498;28;20036;-65
2021/11/30 08:49:32;;;;;;;18.90;2.28;;;8.40;99.90;;;;;;5061696;28;20074;-65
2021/11/30 08:51:58;;;;;;;14.75;2.05;;;8.40;99.90;;;;;;5062257;28;20036;-65
2021/11/30 08:54:26;;;;;;;23.13;2.60;;;8.40;99.90;;;;;;5064502;28;20073;-65
2021/11/30 08:56:52;;;;;;;13.73;2.33;;;8.40;99.90;;;;;;5060073;28;20151;-65
2021/11/30 08:59:18;;;;;;;16.88;2.30;;;8.40;99.90;;;;;;5066510;28;20044;-65
2021/11/30 09:01:44;;;;;;;11.80;1.70;;;8.40;99.90;;;;;;5061977;28;20414;-65
2021/11/30 09:04:10;;;;;;;16.60;1.58;;;8.40;99.90;;;;;;5060095;28;20125;-65
2021/11/30 09:06:36;;;;;;;11.30;1.35;;;8.40;99.90;;;;;;5059489;28;20555;-65
2021/11/30 09:09:06;;;;;;;12.77;1.67;;;8.50;99.90;;;;;;5058024;28;20035;-65
2021/11/30 09:11:32;;;;;;;14.82;1.67;;;8.40;99.90;;;;;;5060712;28;20040;-64
2021/11/30 09:13:58;;;;;;;14.93;1.70;;;8.70;99.90;;;;;;5059262;28;20527;-65
2021/11/30 09:16:23;;;;;;;16.40;2.03;;;8.40;99.90;;;;;;5060281;28;20041;-65
2021/11/30 09:18:50;;;;;;;20.63;2.30;;;8.40;99.90;;;;;;5060422;28;20040;-64
2021/11/30 09:21:16;;;;;;;14.95;1.63;;;8.40;99.90;;;;;;5060257;28;20041;-65
2021/11/30 09:23:44;;;;;;;19.25;2.60;;;8.40;99.90;;;;;;5060679;28;20048;-65
2021/11/30 09:26:10;;;;;;;19.77;2.22;;;8.40;99.90;;;;;;5065531;28;20041;-65
2021/11/30 09:28:36;;;;;;;17.33;3.25;;;8.40;99.90;;;;;;5063937;28;20382;-65
2021/11/30 09:31:02;;;;;;;19.52;2.08;;;8.40;99.90;;;;;;5059238;28;20150;-65
2021/11/30 09:33:28;;;;;;;18.73;3.35;;;8.40;99.90;;;;;;5060637;28;20067;-65
2021/11/30 09:35:54;;;;;;;22.88;2.30;;;8.40;99.90;;;;;;5060258;28;20041;-65
2021/11/30 09:38:20;;;;;;;28.00;3.00;;;8.50;99.90;;;;;;5063098;28;20668;-64
2021/11/30 09:40:47;;;;;;;15.13;2.03;;;8.50;99.90;;;;;;5063455;28;20075;-65
2021/11/30 09:43:13;;;;;;;17.27;3.15;;;8.50;99.90;;;;;;5064237;28;20531;-65
2021/11/30 09:45:40;;;;;;;19.25;2.00;;;8.50;99.90;;;;;;5057601;28;20098;-65
2021/11/30 09:48:11;;;;;;;24.63;2.88;;;8.60;99.90;;;;;;5060165;28;20044;-65
2021/11/30 09:50:38;;;;;;;15.57;1.60;;;8.60;99.90;;;;;;5066561;28;20036;-65
2021/11/30 09:53:05;;;;;;;17.02;2.13;;;8.60;99.90;;;;;;5063680;28;20390;-65
2021/11/30 09:55:31;;;;;;;13.48;1.67;;;8.60;99.90;;;;;;5061953;28;20433;-65
2021/11/30 09:57:57;;;;;;;10.05;1.10;;;8.60;99.90;;;;;;5061155;28;20044;-65
2021/11/30 10:00:24;;;;;;;9.10;0.90;;;8.60;99.90;;;;;;5065315;28;20454;-65
2021/11/30 10:02:51;;;;;;;14.48;2.17;;;8.60;99.90;;;;;;5062691;28;20052;-65
2021/11/30 10:05:18;;;;;;;10.23;1.65;;;8.50;99.90;;;;;;5065239;28;20040;-65
2021/11/30 10:07:48;;;;;;;10.40;1.08;;;8.50;99.90;;;;;;5060193;28;20154;-65
2021/11/30 10:10:20;;;;;;;9.15;0.90;;;8.40;99.90;;;;;;5063793;28;20457;-65
2021/11/30 10:13:08;;;;;;;9.18;0.90;;;8.50;99.90;;;;;;5061993;28;20509;-65
2021/11/30 10:15:46;;;;;;;5.95;0.73;;;8.50;99.90;;;;;;5062377;28;20060;-65
2021/11/30 10:18:30;;;;;;;14.73;1.77;;;8.60;99.90;;;;;;5061771;28;20045;-65
2021/11/30 10:21:08;;;;;;;8.07;0.85;;;8.60;99.90;;;;;;5062137;28;20113;-65
2021/11/30 10:23:56;;;;;;;8.32;0.98;;;8.60;99.90;;;;;;5063322;28;20040;-65
2021/11/30 10:26:37;;;;;;;8.07;0.98;;;8.60;99.90;;;;;;5060939;28;20040;-65
2021/11/30 10:29:11;;;;;;;10.45;1.08;;;8.70;99.90;;;;;;5065454;28;20045;-65
2021/11/30 10:31:43;;;;;;;12.93;1.13;;;8.70;99.90;;;;;;5061080;28;20040;-65
2021/11/30 10:34:13;;;;;;;10.88;1.45;;;8.80;99.90;;;;;;5063311;28;21559;-65
2021/11/30 10:36:49;;;;;;;10.18;1.55;;;8.70;99.90;;;;;;5062544;28;20040;-65
2021/11/30 10:39:18;;;;;;;;;;;8.80;99.90;;;;;;5062670;28;20036;-65
2021/11/30 10:41:46;;;;;;;5.28;0.93;;;8.80;99.90;;;;;;5061419;28;19924;-65
2021/11/30 10:44:12;;;;;;;7.70;1.02;;;8.80;99.90;;;;;;5060775;28;20548;-65
2021/11/30 10:46:38;;;;;;;16.98;1.65;;;8.80;99.90;;;;;;5063036;28;20126;-65
2021/11/30 10:49:05;;;;;;;10.10;1.13;;;8.80;99.90;;;;;;5079116;28;20044;-65
2021/11/30 10:51:53;;;;;;;11.45;1.48;;;8.80;99.90;;;;;;5064096;28;20703;-65
2021/11/30 10:54:21;;;;;;;11.48;1.02;;;8.80;99.90;;;;;;5060978;28;20086;-65
2021/11/30 10:57:00;;;;;;;10.15;1.83;;;8.70;99.90;;;;;;5060695;28;20044;-65
2021/11/30 10:59:30;;;;;;;10.40;1.45;;;8.70;99.90;;;;;;5060682;28;20410;-65
2021/11/30 11:01:56;;;;;;;9.55;1.23;;;8.70;99.90;;;;;;5064378;28;20585;-65
2021/11/30 11:04:35;;;;;;;15.93;2.58;;;8.70;99.90;;;;;;5064778;28;20102;-65
2021/11/30 11:07:13;;;;;;;6.88;1.00;;;8.70;99.90;;;;;;5091640;28;20154;-65
2021/11/30 11:09:49;;;;;;;14.00;1.80;;;8.60;99.90;;;;;;5058622;28;20110;-65
2021/11/30 11:12:25;;;;;;;11.07;1.58;;;8.60;99.90;;;;;;5060000;28;20041;-65
2021/11/30 11:14:51;;;;;;;11.68;1.42;;;8.60;99.90;;;;;;5063936;28;20151;-65
2021/11/30 11:17:27;;;;;;;14.82;2.13;;;8.50;99.90;;;;;;5061409;28;20127;-65
2021/11/30 11:19:52;;;;;;;12.35;1.48;;;8.50;99.90;;;;;;5064354;28;20435;-65
2021/11/30 11:22:22;;;;;;;11.38;1.50;;;8.50;99.90;;;;;;5064718;28;20071;-65
2021/11/30 11:24:50;;;;;;;12.48;1.38;;;8.40;99.90;;;;;;5061906;28;20683;-65
2021/11/30 11:27:27;;;;;;;12.55;1.45;;;8.40;99.90;;;;;;5062389;28;20980;-65
2021/11/30 11:29:53;;;;;;;9.50;1.80;;;8.30;99.90;;;;;;5062592;28;20071;-65
2021/11/30 11:32:19;;;;;;;12.15;1.63;;;8.20;99.90;;;;;;5061201;28;20095;-65
2021/11/30 11:34:45;;;;;;;14.00;2.03;;;8.20;99.90;;;;;;5063118;28;20113;-65
2021/11/30 11:37:11;;;;;;;13.52;1.80;;;8.10;99.90;;;;;;5066037;28;20052;-65
2021/11/30 11:39:38;;;;;;;16.75;2.38;;;8.00;99.90;;;;;;5063763;28;20390;-65
2021/11/30 11:42:07;;;;;;;13.02;2.28;;;8.00;99.90;;;;;;5063343;28;20032;-65
2021/11/30 11:44:33;;;;;;;14.80;1.90;;;8.00;99.90;;;;;;5062006;28;20071;-65
2021/11/30 11:47:02;;;;;;;16.77;1.50;;;7.90;99.90;;;;;;5092770;28;20474;-65
2021/11/30 11:49:34;;;;;;;15.60;2.03;;;7.90;99.90;;;;;;5092761;28;20090;-65
2021/11/30 11:52:00;;;;;;;19.60;2.25;;;7.80;99.90;;;;;;5063400;28;20090;-65
2021/11/30 11:54:35;;;;;;;12.82;2.63;;;7.80;99.90;;;;;;5065664;28;20032;-65
2021/11/30 11:57:08;;;;;;;12.68;1.42;;;7.80;99.90;;;;;;5067775;28;20646;-65
2021/11/30 11:59:43;;;;;;;14.82;2.08;;;7.80;99.90;;;;;;5093418;28;20036;-65
2021/11/30 12:02:24;;;;;;;17.23;2.90;;;7.80;99.90;;;;;;5066409;28;20055;-65
2021/11/30 12:04:58;;;;;;;16.55;1.67;;;7.80;99.90;;;;;;5065736;28;20052;-65
2021/11/30 12:07:25;;;;;;;11.40;1.60;;;7.80;99.90;;;;;;5063269;28;20053;-65
2021/11/30 12:10:19;;;;;;;13.50;1.80;;;7.80;99.90;;;;;;5063818;28;20063;-65
2021/11/30 12:12:56;;;;;;;18.20;2.15;;;7.70;99.90;;;;;;5064033;28;20065;-65
2021/11/30 12:15:23;;;;;;;15.25;2.20;;;7.80;99.90;;;;;;5065758;28;20465;-65
2021/11/30 12:17:49;;;;;;;11.25;1.67;;;7.80;99.90;;;;;;5063138;28;20076;-65
2021/11/30 12:20:15;;;;;;;11.98;1.70;;;7.80;99.90;;;;;;5063166;28;20066;-65
2021/11/30 12:22:53;;;;;;;14.27;1.90;;;7.80;99.90;;;;;;5065073;28;20041;-65
2021/11/30 12:25:47;;;;;;;14.88;1.60;;;7.70;99.90;;;;;;5094175;28;20145;-65
2021/11/30 12:28:40;;;;;;;19.70;2.47;;;7.70;99.90;;;;;;5093104;28;20076;-65
2021/11/30 12:31:27;;;;;;;18.25;2.38;;;7.70;99.90;;;;;;5094714;28;20052;-65
2021/11/30 12:33:53;;;;;;;20.85;2.95;;;7.60;99.90;;;;;;5062782;28;20531;-64
2021/11/30 12:36:30;;;;;;;16.95;2.30;;;7.70;99.90;;;;;;5063113;28;20052;-64
2021/11/30 12:39:02;;;;;;;20.98;3.08;;;7.60;99.90;;;;;;5092343;28;20546;-64
2021/11/30 12:41:30;;;;;;;17.42;2.30;;;7.70;99.90;;;;;;5067627;28;20072;-64
2021/11/30 12:44:19;;;;;;;25.42;2.28;;;7.60;99.90;;;;;;5060639;28;20101;-64
2021/11/30 12:46:51;;;;;;;23.08;2.63;;;7.60;99.90;;;;;;5067507;28;20044;-65
2021/11/30 12:49:24;;;;;;;17.42;3.35;;;7.70;99.90;;;;;;5064256;28;20036;-64
2021/11/30 12:52:09;;;;;;;17.10;2.00;;;7.60;99.90;;;;;;5063793;28;20527;-64
2021/11/30 12:54:37;;;;;;;14.93;1.60;;;7.70;99.90;;;;;;5064301;28;20160;-64
2021/11/30 12:57:04;;;;;;;17.42;2.30;;;7.60;99.90;;;;;;5062087;28;20425;-65
2021/11/30 12:59:41;;;;;;;16.95;3.20;;;7.60;99.90;;;;;;5064235;28;20119;-64
2021/11/30 13:02:17;;;;;;;21.00;2.13;;;7.60;99.90;;;;;;5094367;28;20045;-64
2021/11/30 13:04:43;;;;;;;21.30;2.25;;;7.60;99.90;;;;;;5092500;28;20024;-64
2021/11/30 13:07:16;;;;;;;17.85;2.85;;;7.70;99.90;;;;;;5064108;28;20067;-64
2021/11/30 13:09:50;;;;;;;18.20;1.92;;;7.60;99.90;;;;;;5091994;28;20134;-64
2021/11/30 13:12:33;;;;;;;19.98;2.55;;;7.70;99.90;;;;;;5065900;28;20040;-64